Kcmh metar

METAR KCMH 190851Z 22007KT 10SM -RA FEW0

METAR Data for KCMH: KCMH 301751Z 21013G17KT 10SM BKN080 16/08 A2975 RMK AO2 SLP075 60024 T01610078 10167 20083 58023.METAR KCMH 041151Z 00000KT 7SM FEW250 16/14 A3016 RMK AO2 SLP209 T01560144 10189 20150 53008. There is little or no wind from a variable direction. Visibility is 7 mi. No ceiling has been observed. The temperature and wind chill are 16 °C.METAR KCMH 170751Z 17005KT 10SM FEW120 OVC150 22/12 A2988 RMK AO2 SLP110 T02220122. The wind is from direction 170° with a speed of 5 kt. Visibility is 10 mi. The ceiling, broken or more, is 15,000 ft. The temperature and wind chill are 22 °C.

Did you know?

METAR KCMH 172151Z COR 31011G24KT 7SM R28L/1600VP6000FT -TSRA BKN024 OVC055 16/15 A2977 RMK AO2 PK WND 21035/2124 WSHFT 2120 LTG DSNT ALQDS RAB29GRB39E51 TSB26 SLP077 GR 1/2 TS MOV E P0051 T01560150 $. Current weather is light thunderstorms rain.The wind is from direction 310° with a speed …Make your Flight Plan at SkyVector.com. SkyVector is a free online flight planner. Flight planning is easy on our large collection of Aeronautical Charts, including Sectional Charts, Approach Plates, IFR Enroute Charts, and Helicopter route charts. Weather data is always current, as are Jet Fuel Prices and avgas 100ll prices.KCMH METAR Weather: KCMH 301551Z 23005KT 10SM SCT020 OVC028 18/14 A2995 RMK AO2 SLP140 T01830144 KCMH Flight Activity (FlightAware) KCMH Webcam: KCMH Airport Info (iFlightPlanner) KCMH Twr/App/Dep: Feed Status: UP Listeners: 2 (in browser, HTML5) (launches your MP3 player) KCMH Twr/App/Dep Audio Archives:METAR KCMH 180551Z 28007KT 10SM OVC049 16/11 A2995 RMK AO2 SLP138 T01560106 10194 20139 53014 $. The wind is from direction 280° with a speed of 7 kt. Visibility is 10 mi. The ceiling, broken or more, is 4,900 ft. The temperature and wind chill are 16 °C.AWC - Aviation Weather CenterMETAR KCMH 171651Z 20013G25KT 10SM BKN029 OVC090 21/16 A2983 RMK AO2 PK WND 21026/1623 SLP094 T02110156 $. The wind is from direction 200° with a speed of 13 kt. Visibility is 10 mi. The ceiling, broken or more, is 2,900 ft. The temperature and wind chill are 21 °C.A METAR (METeorological Aerodrome Report) is an observation and provides information about the current weather. A TAF (Terminal Area Forecast) provides a forecast for a longer period, for example 8, 24 or 36 hours. Both are prepared for aviation and contain weather information that pilots need. This is how you read a METAR.METAR Morristown Municipal Airport - KMMU/MMU. Morristown Municipal Airport is a midsized airport in New Jersey, United States. The airport is located at latitude 40.79924 and longitude -74.41540. The airport has 2 runways: 5/23 and 13/31.METAR KCMH 190151Z 12005KT 10SM FEW160 BKN250 18/09 A2996 RMK AO2 SLP144 T01830089. The wind is from direction 120° with a speed of 5 kt. Visibility is 10 mi. The ceiling, broken or more, is 25,000 ft. The temperature and wind chill are 18 °C.KCMH - John Glenn Columbus International Airport (12 nm SW) 4I3 - Knox County Airport (14 nm NE) KVTA - Newark-Heath Airport ... METAR; KCMH 12nm SW : 230951Z 19007KT 10SM BKN170 09/00 A3004 RMK AO2 SLP174 T00890000 $ K4I3 14nm NE : 230955Z AUTO 19004KT 10SM CLR 08/00 A3004 RMK AO2 KVTAMETAR KCMH 170751Z 17005KT 10SM FEW120 OVC150 22/12 A2988 RMK AO2 SLP110 T02220122. The wind is from direction 170° with a speed of 5 kt. Visibility is 10 mi. The ceiling, broken or more, is 15,000 ft. The temperature and wind chill are 22 °C.METAR UTC DATE/TIME; KCMH 032351Z 10004KT 10SM FEW070 BKN090 OVC140 22/17 A2998 RMK AO2 SLP146 T02170167 10239 20217 55000: 2024-05-03 23:51:00: Day: 3rd Time: 23:51 UTC Wind direction: 100° Wind speed: 4kt Temperature: 22°C Dew point: 17°C Pressure: 29.98 inHg Visibility: 10 SM KCMH 032251Z 14005KT 10SM FEW065 OVC100 23/16 A2997 RMK AO2 SLP144 T02330156ByKCRG Staff. A Cedar Rapids man was arrested on Wednesday after police said he flashed a handgun at a driver in a road rage incident on I-380 in Johnson County on Wednesday. Iowa.METAR KCMH 190851Z 22007KT 10SM -RA FEW025 SCT070 OVC110 18/09 A2986 RMK AO2 RAB48 SLP105 P0000 60000 T01780089 56003. Current weather is light rain.The wind is from direction 220° with a speed of 7 kt. Visibility is 10 mi. The ceiling, broken or more, is 11,000 ft. The temperature and wind chill are 18 °C.METAR KCMH 180251Z 29006KT 10SM FEW060 15/11 A2991 RMK AO2 SLP126 T01500106 51034 $. The wind is from direction 290° with a speed of 6 kt. Visibility is 10 mi. No ceiling has been observed. The temperature and wind chill are 15 °C.航空気象センターのMETARは、世界中の空港の気象報告を提供するサービスです。METARは、風、視程、雲、降水、凍結、悪天候などの航空関連の気象変数をテキストやグラフィックで表示します。METARは、航空機の飛行計画や安全性に役立つ重要な情報源です。METAR Ronald Reagan Washington National Airport - KDCA/DCA. Ronald Reagan Washington National Airport is a large airport in Washington, D.C., United States. The airport is located at latitude 38.85144 and longitude -77.03772. The airport has 3 runways: 1/19, 4/22 and 15/33. The ICAO airport code of this field is KDCA.METAR Flying Cloud Airport - KFCM/FCM. Flying Cloud Airport is a midsized airport in Minnesota, United States. The airport is located at latitude 44.82727 and longitude -93.45794. The airport has 3 runways: 10L/28R, 10R/28L and 18/36. The ICAO airport code of this field is KFCM.METAR KCMH 172213Z 31007KT 7SM VCTS -RA BKN038 OVC065 17/16 A2977 RMK AO2 LTG DSNT ALQDS TSE10 TS MOV E P0021 T01670156 $. Current weather is in the vicinity thunderstorms , light rain.The wind is from direction 310° with a speed of 7 kt. Visibility is 7 mi. The ceiling, broken or more, is 3,800 ft. The temperature and wind chill are 17 °C.Apr 17, 2024 · METAR KCMH 172134Z 32020G34KT 3SM R28L/5000VP6000FT -TSRA BKN055CB BKN090 OVC110 18/14 A2974 RMK AO2 PK WND 21035/2124 WSHFT 2120 LTG DSNT ALQDS RAB29 TSB26 FRQ LTGCCCG TS W-N MOV E P0000 T01830139 $. Current weather is light thunderstorms rain.The wind is from direction 320° with a speed of 20 kt. Visibility is 3 mi. The ceiling, broken or more, is 5,500 ft. The temperature and wind chill ... METAR KCMH 180751Z 27008KT 10SM BKN031 OVC040 13/09 A2998KCMH METAR Weather: KCMH 220151Z 00000KT 10SM South wind around 7 mph. Monday. Mostly sunny, with a high near 84. Southwest wind 10 to 15 mph. Monday Night. A chance of showers and thunderstorms, then showers and possibly a thunderstorm after 1am. Low around 62. Southwest wind 7 to 9 mph. Chance of precipitation is 80%. New rainfall amounts between a quarter and half of an inch possible.METAR KCMH 171257Z 19013KT 5SM -RA BKN009 BKN040 OVC050 17/14 A2991 RMK AO2 LTG DSNT SW RAB55 P0000 T01720144. Current weather is light rain.The wind is from direction 190° with a speed of 13 kt. Visibility is 5 mi. The ceiling, broken or more, is 900 ft. The temperature and wind chill are 17 °C. METAR KCMH 172151Z COR 31011G24KT 7SM R28L/1600VP6000FT -TSRA BKN024 METAR KCMH 271151Z 32009KT 10SM CLR 03/M03 A3027 RMK AO2 SLP254 T00281033 10050 20022 53011. The wind is from direction 320° with a speed of 9 kt. Visibility is 10 mi. No ceiling has been observed. The temperature is 37 °F, with a wind chill of 27 °F.METAR KCMH 182251Z 16004KT 10SM FEW150 BKN250 22/09 A3000 RMK AO2 SLP157 T02170089. The wind is from direction 160° with a speed of 4 kt. Visibility is 10 mi. The ceiling, broken or more, is 25,000 ft. The temperature and wind chill are 22 °C. AWC - Aviation Weather Center

METAR KCMH 271051Z 27007KT 10SM BKN065 04/02 A2995 RMK AO2 SLP143 T00390017. Der Wind kommt aus der Richtung 270° mit einer Geschwindigkeit von 7 kt. Sicht ist 10 mi. Die Decke, durchbrochen oder mehr, ist 6.500 ft. Die Temperatur ist 4 °C, mit einem Windchill von -1 °C.Get the latest aviation weather forecasts and observations for KCVG airport, including translated TAFs and METARs, from the Aviation Weather Center.Detailed Forecast. Overnight. A chance of showers, with thunderstorms also possible after 5am. Mostly cloudy, with a low around 63. South wind around 8 mph. Chance of precipitation is 30%. New rainfall amounts between a tenth and quarter of an inch, except higher amounts possible in thunderstorms. Wednesday.KCMH METAR Weather: KCMH 250451Z 04006KT 10SM OVC024 05/01 A3027 RMK AO2 SLP253 T00500006 401280050 KCMH Flight Activity (FlightAware) KCMH Airport Info (iFlightPlanner) ZID Sector 78: Feed Status: UP Listeners: 0 (in browser, HTML5) (launches your MP3 player) ZID Sector 78 Audio Archives:

AWC - Aviation Weather CenterTrader Joe's and Pepperidge Farm settled their lawsuit over the former's Milano-like cookies. By clicking "TRY IT", I agree to receive newsletters and promotions from Money and its...…

Reader Q&A - also see RECOMMENDED ARTICLES & FAQs. METAR Charleston Air Force Base/International - . Possible cause: METAR Newark-Heath Airport - KVTA. Newark-Heath Airport is a midsized .

PIREP Description A Pilot Report or PIREP is a report of the actual weather conditions as encountered by an aircraft in flight. Traditionally, these reports are transmitted by radio to an appropriate ground station for dissemination but, when necessary, they can be made by telephone after landing. More recently, appropriately equipped aircraft can automatically send meteorological reports ...METAR KCMH 051851Z 10005KT 10SM SCT023 BKN050 26/21 A3001 RMK AO2 SLP157 T02560211 $. The wind is from direction 100° with a speed of 5 kt. Visibility is 10 mi. The ceiling, broken or more, is 5,000 ft. The temperature and wind chill are 79 °F.

METAR KCMH 171351Z 18008KT 6SM BR BKN016 BKN040 OVC075 17/16 A2989 RMK AO2 RAB1255E35 SLP115 P0007 T01720156 $. Current weather is mist.The wind is from direction 180° with a speed of 8 kt. Visibility is 6 mi. The ceiling, broken or more, is 1,600 ft. The temperature and wind chill are 17 °C.METAR KCMH 182051Z 00000KT 10SM BKN250 22/09 A3002 RMK AO2 SLP163 T02220089 58012. There is little or no wind from a variable direction. Visibility is 10 mi. The ceiling, broken or more, is 25,000 ft. The temperature and wind chill are 22 °C.metars page. aviation weather center n o a a n a t i o n a l w e a t h e r s e r v i c e. home. awc home; ncep > ncep home; aviation (awc) ... kcmh 280551z 18003kt 10sm few035 bkn250 24/22 a3004 rmk ao2 slp165 t02440222 10300 20244 58000 kcmh 280537z 2806/2906 20004kt p6sm sct035 bkn250 fm281500 21008kt p6sm sct050 fm282200 25010kt p6sm ...

METAR KCMH 171433Z 18010KT 7SM FEW012 BKN019 METAR KCMH 181951Z VRB05KT 10SM SCT250 22/09 A3004 RMK AO2 SLP169 T02170089. There is little or no wind from a variable direction. Visibility is 10 mi. ... (9.7 NM) METAR KLCK - Rickenbacker International Airport (11 NM) METAR TAF KTZR - Bolton Field (13 NM) METAR KLHQ - Fairfield County (18 NM) METAR. 18 April 15:51 LT 14hTAF Rickenbacker International Airport. Rickenbacker International Airport is a large airport in Ohio, United States. The airport is located at latitude 39.81379 and longitude -82.92782. The airport has 2 runways: 5R/23L and 5L/23R. The ICAO airport code of this field is KLCK. The local airport ID (FAA LID) of this airport is LCK. KCMH METAR Weather: KCMH 040322Z 16003KT 10SM Station Type Date Time Source; KCMH: Decoded META Prefab houses are growing in popularity and size as more options become available. Learn about prefab houses and find out how prefab houses are constructed. Advertisement Manufactu... NOISE BARRIER LOCATED AT SE SIDE OF AIRFIELD RESTRICTED TO ACFT WIT Apr 18, 2024 · Complete aeronautical information about John Glenn Columbus International Airport (Columbus, OH, USA), including location, runways, taxiways, navaids, radio frequencies, FBO information, fuel prices, sunrise and sunset times, aerial photo, airport diagram. METAR KCMH 171151Z 18010KT 10SM -RA SCT055 BKN075 OVC090 17/14 A2992 RMK AO2 RAB48 SLP127 P0000 60001 70001 T01720144 10228 20172 50011. Current weather is light rain.The wind is from direction 180° with a speed of 10 kt. Visibility is 10 mi. The ceiling, broken or more, is 7,500 ft. The temperature and wind chill … Apr 17, 2024 · METAR KCMH 170751Z 17005KT 10SMYou back up your computer, right? (If you're noMETAR KCMH 181551Z 27003KT 10SM SCT250 18/09 A3008 RMK AO2 SLP185 T01 Some of the TPG UK team flew each of the major Middle East carriers in coach on their A380s to see which product is best. Following the success of TPG UK's four-class review of the... METAR KCMH 180451Z 27004KT 10SM BKN060 14/11 A2993 RMK AO2 S Get the latest aviation weather reports for KPMP station in Florida, with translations, TAFs, and past 36 hours history. Visit AWC KCMH (91.5 FM) is a radio station broadcasting a Christ[metar; kvta 8nm n : ... 040153z auto 13003kt 9sm -ra ovc032 21/19 a300The ICAO airport code of this field is KCMH. The local airport I METAR KCMH 031951Z 15005KT 10SM FEW065 30/16 A3014 RMK AO2 SLP200 T03000156. The wind is from direction 150° with a speed of 5 kt. Visibility is 10 …